Falfurrias, TX

7:42 AM CDT on March 26, 2017 (GMT -0500)
Falfurrias

Weather History for KBKS - January, 2013

Change the Weather History Date:

Saturday, January 12, 2013

  Actual Average (KNQI) Record (KNQI)
Temperature  
Mean Temperature 75 °F -  
Max Temperature 84 °F 66 °F 84 °F (2000)
Min Temperature 66 °F 46 °F 30 °F (1997)
Cooling Degree Days 10    
Growing Degree Days 25 (Base 50)    
Moisture  
Dew Point 69 °F    
Average Humidity 80    
Maximum Humidity 96    
Minimum Humidity 58    
Precipitation  
Precipitation 0.00 in - - ()
Sea Level Pressure  
Sea Level Pressure 29.72 in    
Wind  
Wind Speed 13 mph (SSE)    
Max Wind Speed 24 mph    
Max Gust Speed 31 mph    
Visibility 8 miles    
Events      
Averages and records for this station are not official NWS values.
T = Trace of Precipitation, MM = Missing Value Source: NWS Daily Summary

Daily Weather History Graph

Daily Weather History Graph

Search for Another Location

Airport or City:

Trip Planner

Search our weather history database for the weather conditions in past years. The results will help you decide how hot, cold, wet, or windy it might be!

Date:

Astronomy

Jan. 12, 2013 Rise Set
Actual Time 7:23 AM CST 5:58 PM CST
Civil Twilight 6:58 AM CST 6:23 PM CST
Nautical Twilight 6:29 AM CST 6:52 PM CST
Astronomical Twilight 6:01 AM CST 7:20 PM CST
Moon 7:52 AM CST (1/12) 7:17 PM CST (1/12)
Length of Visible Light 11h 25m
Length of Day
10h 34m
New Moon, 1% of the Moon is Illuminated
Jan 12
New Moon
Jan 18
First Quarter
Jan 26
Full
Feb 3
Last Quarter
Feb 10
New

Hourly Weather History & Observations

Time (CST) Temp. Heat Index Dew Point Humidity Pressure Visibility Wind Dir Wind Speed Gust Speed Precip Events Conditions
12:15 AM 66.7 °F - 65.7 °F 96% 29.83 in 5.0 mi SE 4.6 mph - N/A   Clear
12:55 AM 66.9 °F - 65.8 °F 96% 29.82 in 5.0 mi SE 8.1 mph - N/A   Mostly Cloudy
1:15 AM 67.8 °F - 66.4 °F 95% 29.80 in 7.0 mi SE 12.7 mph 18.4 mph N/A   Overcast
1:35 AM 68.2 °F - 66.7 °F 95% 29.80 in 7.0 mi SE 13.8 mph 21.9 mph N/A   Overcast
2:15 AM 69.8 °F - 67.1 °F 91% 29.81 in 7.0 mi SSE 12.7 mph 18.4 mph N/A   Scattered Clouds
2:35 AM 70.0 °F - 67.1 °F 91% 29.82 in 7.0 mi SSE 10.4 mph - N/A   Scattered Clouds
2:55 AM 70.7 °F - 67.3 °F 89% 29.80 in 5.0 mi SSE 13.8 mph 19.6 mph N/A   Clear
3:15 AM 70.9 °F - 67.5 °F 89% 29.79 in 7.0 mi SSE 13.8 mph 20.7 mph N/A   Clear
3:35 AM 71.2 °F - 67.5 °F 88% 29.78 in 7.0 mi SSE 16.1 mph 20.7 mph N/A   Clear
4:15 AM 71.1 °F - 67.1 °F 87% 29.75 in 10.0 mi SSE 9.2 mph - N/A   Clear
4:35 AM 71.1 °F - 67.3 °F 88% 29.74 in 10.0 mi SSE 12.7 mph 18.4 mph N/A   Clear
4:55 AM 71.2 °F - 67.5 °F 88% 29.74 in 7.0 mi SSE 13.8 mph - N/A   Clear
5:15 AM 71.1 °F - 67.5 °F 88% 29.75 in 10.0 mi SSE 13.8 mph - N/A   Clear
5:35 AM 71.2 °F - 67.8 °F 89% 29.74 in 10.0 mi SSE 15.0 mph - N/A   Clear
5:55 AM 71.1 °F - 67.8 °F 89% 29.74 in 7.0 mi SSE 13.8 mph 19.6 mph N/A   Clear
6:15 AM 71.4 °F - 68.0 °F 89% 29.74 in 10.0 mi SSE 15.0 mph 20.7 mph N/A   Scattered Clouds
6:35 AM 71.6 °F - 68.2 °F 89% 29.74 in 10.0 mi SSE 16.1 mph 21.9 mph N/A   Mostly Cloudy
6:55 AM 71.8 °F - 68.2 °F 88% 29.74 in 10.0 mi SSE 17.3 mph 23.0 mph N/A   Overcast
7:15 AM 71.8 °F - 68.2 °F 88% 29.74 in 7.0 mi SSE 16.1 mph 23.0 mph N/A   Mostly Cloudy
7:35 AM 72.0 °F - 68.0 °F 87% 29.75 in 10.0 mi SSE 17.3 mph 24.2 mph N/A   Scattered Clouds
7:55 AM 71.8 °F - 68.0 °F 88% 29.75 in 7.0 mi SSE 16.1 mph 20.7 mph N/A   Clear
8:15 AM 71.8 °F - 68.2 °F 88% 29.75 in 7.0 mi SSE 17.3 mph 20.7 mph N/A   Clear
8:35 AM 72.1 °F - 68.4 °F 88% 29.77 in 10.0 mi South 13.8 mph 21.9 mph N/A   Scattered Clouds
9:15 AM 73.4 °F - 68.5 °F 85% 29.77 in 10.0 mi SSE 19.6 mph 25.3 mph N/A   Overcast
9:35 AM 73.8 °F - 68.7 °F 84% 29.78 in 10.0 mi South 20.7 mph 24.2 mph N/A   Mostly Cloudy
9:55 AM 74.5 °F - 68.5 °F 82% 29.78 in 10.0 mi South 24.2 mph 29.9 mph N/A   Scattered Clouds
10:15 AM 75.4 °F - 68.9 °F 80% 29.78 in 10.0 mi South 18.4 mph 27.6 mph N/A   Mostly Cloudy
10:35 AM 76.3 °F - 68.9 °F 78% 29.78 in 10.0 mi South 21.9 mph 26.5 mph N/A   Mostly Cloudy
11:15 AM 78.1 °F - 68.7 °F 73% 29.76 in 10.0 mi South 17.3 mph 27.6 mph N/A   Scattered Clouds
11:35 AM 79.0 °F - 68.5 °F 70% 29.75 in 10.0 mi South 20.7 mph 31.1 mph N/A   Clear
11:55 AM 81.0 °F 83.8 °F 68.2 °F 65% 29.74 in 10.0 mi South 21.9 mph 31.1 mph N/A   Clear
12:15 PM 81.1 °F 84.0 °F 68.5 °F 65% 29.72 in 10.0 mi South 24.2 mph 28.8 mph N/A   Clear
12:35 PM 81.9 °F 84.8 °F 68.0 °F 63% 29.71 in 10.0 mi South 20.7 mph 29.9 mph N/A   Clear
1:15 PM 83.3 °F 85.9 °F 67.3 °F 58% 29.69 in 10.0 mi South 20.7 mph 26.5 mph N/A   Clear
1:35 PM 83.3 °F 86.2 °F 67.5 °F 59% 29.68 in 10.0 mi South 20.7 mph 25.3 mph N/A   Clear
1:55 PM 83.3 °F 86.2 °F 67.8 °F 59% 29.67 in 10.0 mi South 17.3 mph 24.2 mph N/A   Clear
2:15 PM 83.8 °F 87.0 °F 68.0 °F 59% 29.66 in 7.0 mi SSE 18.4 mph 24.2 mph N/A   Clear
2:35 PM 84.2 °F 87.6 °F 68.4 °F 59% 29.65 in 7.0 mi SSE 17.3 mph 23.0 mph N/A   Clear
2:55 PM 83.8 °F 87.3 °F 68.5 °F 60% 29.65 in 10.0 mi SSE 12.7 mph - N/A   Clear
3:15 PM 84.2 °F 87.9 °F 69.1 °F 60% 29.65 in 10.0 mi South 17.3 mph 21.9 mph N/A   Clear
3:35 PM 83.7 °F 87.7 °F 69.8 °F 63% 29.65 in 7.0 mi SSE 13.8 mph 18.4 mph N/A   Clear
3:55 PM 83.3 °F 87.9 °F 70.7 °F 66% 29.65 in 7.0 mi SSE 17.3 mph 21.9 mph N/A   Clear
4:15 PM 82.4 °F 86.7 °F 70.9 °F 68% 29.65 in 10.0 mi SSE 13.8 mph 24.2 mph N/A   Clear
4:35 PM 81.5 °F 85.7 °F 71.4 °F 71% 29.65 in 7.0 mi SSE 13.8 mph 19.6 mph N/A   Clear
4:55 PM 80.8 °F 84.6 °F 70.9 °F 72% 29.66 in 10.0 mi SSE 10.4 mph - N/A   Clear
5:15 PM 80.6 °F 84.2 °F 70.7 °F 72% 29.66 in 10.0 mi South 13.8 mph - N/A   Clear
5:35 PM 80.1 °F 83.4 °F 70.7 °F 73% 29.67 in 10.0 mi SSE 12.7 mph - N/A   Clear
6:15 PM 78.8 °F - 70.7 °F 76% 29.66 in 10.0 mi SSE 15.0 mph 19.6 mph N/A   Clear
6:35 PM 78.3 °F - 70.9 °F 78% 29.66 in 10.0 mi SSE 11.5 mph - N/A   Clear
6:55 PM 77.9 °F - 71.2 °F 80% 29.66 in 7.0 mi SSE 12.7 mph - N/A   Clear
7:15 PM 77.2 °F - 71.1 °F 81% 29.66 in 10.0 mi South 11.5 mph 16.1 mph N/A   Clear
7:35 PM 76.8 °F - 70.9 °F 82% 29.66 in 7.0 mi SSE 11.5 mph - N/A   Clear
7:55 PM 76.5 °F - 70.9 °F 83% 29.66 in 7.0 mi SSE 10.4 mph - N/A   Clear
8:15 PM 76.5 °F - 70.9 °F 83% 29.67 in 7.0 mi South 10.4 mph 16.1 mph N/A   Clear
8:35 PM 76.1 °F - 70.7 °F 83% 29.66 in 7.0 mi SSE 12.7 mph - N/A   Clear
8:55 PM 76.1 °F - 70.3 °F 82% 29.66 in 7.0 mi South 11.5 mph 18.4 mph N/A   Clear
9:15 PM 75.9 °F - 70.2 °F 82% 29.66 in 7.0 mi South 12.7 mph - N/A   Clear
9:35 PM 75.7 °F - 70.2 °F 83% 29.67 in 7.0 mi South 10.4 mph 19.6 mph N/A   Clear
10:15 PM 75.4 °F - 70.2 °F 84% 29.67 in 7.0 mi SSE 12.7 mph 16.1 mph N/A   Scattered Clouds
10:35 PM 75.4 °F - 70.3 °F 84% 29.68 in 7.0 mi South 11.5 mph 17.3 mph N/A   Overcast
10:55 PM 75.2 °F - 70.2 °F 84% 29.69 in 7.0 mi South 10.4 mph - N/A   Overcast
11:15 PM 75.2 °F - 70.2 °F 84% 29.69 in 7.0 mi South 9.2 mph - N/A   Overcast
11:35 PM 74.8 °F - 70.2 °F 85% 29.69 in 7.0 mi South 9.2 mph 16.1 mph N/A   Overcast